createdAt,value
2018-06-04T00:01:54.262Z,101067.44
2018-06-04T00:04:22.602Z,101063.91
2018-06-04T00:06:50.933Z,101061.04
2018-06-04T00:09:19.337Z,101060.18
2018-06-04T00:11:47.680Z,101061.74
2018-06-04T00:14:15.431Z,101053.73
2018-06-04T00:16:43.771Z,101054.75
2018-06-04T00:19:12.106Z,101064.86
2018-06-04T00:21:40.581Z,101050.62
2018-06-04T00:24:09.368Z,101054.00
2018-06-04T00:26:37.130Z,101052.17
2018-06-04T00:29:06.047Z,101053.54
2018-06-04T00:31:34.378Z,101050.65
2018-06-04T00:34:02.129Z,101050.45
2018-06-04T00:36:31.055Z,101052.03
2018-06-04T00:38:59.379Z,101046.05
2018-06-04T00:41:27.717Z,101051.67
2018-06-04T00:43:57.067Z,101042.48
2018-06-04T00:46:24.822Z,101043.13
2018-06-04T00:48:53.732Z,101039.33
2018-06-04T00:51:22.375Z,101040.45
2018-06-04T00:53:50.700Z,101045.96
2018-06-04T00:56:18.457Z,101044.55
2018-06-04T00:58:46.808Z,101039.81
2018-06-04T01:01:15.154Z,101033.91
2018-06-04T01:03:44.073Z,101029.24
2018-06-04T01:06:11.825Z,101033.70
2018-06-04T01:08:40.149Z,101029.04
2018-06-04T01:11:09.063Z,101027.47
2018-06-04T01:13:36.806Z,101029.52
2018-06-04T01:16:05.141Z,101024.94
2018-06-04T01:18:34.058Z,101020.70
2018-06-04T01:21:02.383Z,101023.88
2018-06-04T01:23:30.717Z,101020.37
2018-06-04T01:25:59.061Z,101017.26
2018-06-04T01:28:27.400Z,101014.56
2018-06-04T01:30:55.742Z,101016.58
2018-06-04T01:33:24.069Z,101007.34
2018-06-04T01:35:52.405Z,101005.94
2018-06-04T01:38:20.157Z,101001.90
2018-06-04T01:40:49.073Z,101000.05
2018-06-04T01:43:17.410Z,101000.17
2018-06-04T01:45:45.747Z,101004.72
2018-06-04T01:48:13.513Z,101002.63
2018-06-04T01:50:41.840Z,101000.66
2018-06-04T01:53:10.754Z,100993.14
2018-06-04T01:55:39.082Z,100996.55
2018-06-04T01:58:06.834Z,100994.56
2018-06-04T02:00:35.175Z,101002.80
2018-06-04T02:03:04.089Z,100993.35
2018-06-04T02:05:32.750Z,100994.52
2018-06-04T02:08:01.092Z,100990.79
2018-06-04T02:10:29.418Z,100993.13
2018-06-04T02:12:57.166Z,100995.95
2018-06-04T02:15:26.079Z,100996.70
2018-06-04T02:17:54.748Z,101001.80
2018-06-04T02:20:23.083Z,100997.12
2018-06-04T02:22:51.421Z,100992.17
2018-06-04T02:25:19.584Z,100999.67
2018-06-04T02:27:47.508Z,101003.09
2018-06-04T02:30:15.843Z,100999.45
2018-06-04T02:32:44.757Z,101006.04
2018-06-04T02:35:12.514Z,101004.69
2018-06-04T02:37:41.425Z,100998.98
2018-06-04T02:40:09.173Z,101002.78
2018-06-04T02:42:38.086Z,100998.78
2018-06-04T02:45:05.846Z,101001.59
2018-06-04T02:47:34.176Z,101006.13
2018-06-04T02:50:03.201Z,101004.01
2018-06-04T02:52:30.931Z,101005.20
2018-06-04T02:54:59.170Z,101003.47
2018-06-04T02:57:27.775Z,101006.58
2018-06-04T02:59:56.412Z,100996.59
2018-06-04T03:02:24.743Z,100996.22
2018-06-04T03:04:53.081Z,100999.45
2018-06-04T03:07:21.423Z,100998.14
2018-06-04T03:09:49.753Z,101003.48
2018-06-04T03:12:18.080Z,100999.31
2018-06-04T03:14:46.419Z,100998.36
2018-06-04T03:17:14.757Z,100997.89
2018-06-04T03:19:42.514Z,100997.92
2018-06-04T03:22:10.942Z,100996.92
2018-06-04T03:24:39.768Z,100996.55
2018-06-04T03:27:07.517Z,100996.39
2018-06-04T03:29:36.431Z,100991.95
2018-06-04T03:32:04.190Z,100990.88
2018-06-04T03:34:33.107Z,100986.62
2018-06-04T03:37:01.462Z,100982.66
2018-06-04T03:39:29.233Z,100982.72
2018-06-04T03:41:58.154Z,100982.52
2018-06-04T03:44:26.489Z,100983.89
2018-06-04T03:46:54.841Z,100986.44
2018-06-04T03:49:23.624Z,100993.06
2018-06-04T03:51:52.019Z,100987.92
2018-06-04T03:54:20.184Z,100985.03
2018-06-04T03:56:48.107Z,100982.52
2018-06-04T03:59:17.025Z,100982.86
2018-06-04T04:01:45.373Z,100986.36
2018-06-04T04:04:13.124Z,100985.53
2018-06-04T04:06:42.031Z,100985.31
2018-06-04T04:09:10.359Z,100983.48
2018-06-04T04:11:38.118Z,100977.56
2018-06-04T04:14:06.446Z,100981.69
2018-06-04T04:16:34.773Z,100974.67
2018-06-04T04:19:03.679Z,100973.33
2018-06-04T04:21:32.015Z,100982.95
2018-06-04T04:24:00.347Z,100971.38
2018-06-04T04:26:28.099Z,100971.77
2018-06-04T04:28:57.023Z,100977.38
2018-06-04T04:31:25.365Z,100965.14
2018-06-04T04:33:53.696Z,100967.91
2018-06-04T04:36:21.451Z,100967.97
2018-06-04T04:38:50.369Z,100965.69
2018-06-04T04:41:18.500Z,100966.94
2018-06-04T04:43:46.453Z,100977.67
2018-06-04T04:46:15.531Z,100968.16
2018-06-04T04:48:43.836Z,100968.66
2018-06-04T04:51:12.171Z,100983.12
2018-06-04T04:53:40.546Z,100978.84
2018-06-04T04:56:08.303Z,100968.16
2018-06-04T04:58:37.249Z,100963.45
2018-06-04T05:01:05.597Z,100962.87
2018-06-04T05:03:33.359Z,100955.72
2018-06-04T05:06:02.274Z,100950.51
2018-06-04T05:08:30.639Z,100947.21
2018-06-04T05:10:58.933Z,100951.20
2018-06-04T05:13:26.693Z,100953.72
2018-06-04T05:15:55.631Z,100949.02
2018-06-04T05:18:23.974Z,100954.09
2018-06-04T05:20:52.299Z,100946.54
2018-06-04T05:23:20.650Z,100944.89
2018-06-04T05:25:48.975Z,100944.41
2018-06-04T05:28:16.730Z,100936.23
2018-06-04T05:30:45.663Z,100938.52
2018-06-04T05:33:14.778Z,100936.53
2018-06-04T05:35:42.329Z,100937.92
2018-06-04T05:38:10.669Z,100938.77
2018-06-04T05:40:39.119Z,100934.70
2018-06-04T05:43:07.608Z,100933.95
2018-06-04T05:45:36.042Z,100924.59
2018-06-04T05:48:04.578Z,100926.38
2018-06-04T05:50:32.982Z,100917.55
2018-06-04T05:53:01.525Z,100925.09
2018-06-04T05:55:29.906Z,100913.89
2018-06-04T05:57:58.244Z,100914.67
2018-06-04T06:00:26.569Z,100912.46
2018-06-04T06:02:54.909Z,100908.91
2018-06-04T06:05:22.663Z,100911.03
2018-06-04T06:07:51.583Z,100904.98
2018-06-04T06:10:20.037Z,100902.03
2018-06-04T06:12:48.365Z,100901.60
2018-06-04T06:15:16.703Z,100907.75
2018-06-04T06:17:45.032Z,100901.75
2018-06-04T06:20:13.370Z,100895.70
2018-06-04T06:22:41.248Z,100910.09
2018-06-04T06:25:09.520Z,100898.61
2018-06-04T06:27:37.824Z,100899.83
2018-06-04T06:30:06.822Z,100893.29
2018-06-04T06:32:34.569Z,100892.53
2018-06-04T06:35:03.573Z,100901.23
2018-06-04T06:37:31.401Z,100889.62
2018-06-04T06:40:00.349Z,100888.84
2018-06-04T06:42:28.333Z,100883.66
2018-06-04T06:44:56.466Z,100886.37
2018-06-04T06:47:25.379Z,100882.27
2018-06-04T06:49:53.188Z,100880.95
2018-06-04T06:52:22.103Z,100877.22
2018-06-04T06:54:50.705Z,100876.52
2018-06-04T06:57:18.915Z,100878.05
2018-06-04T06:59:48.486Z,100872.45
2018-06-04T07:02:16.237Z,100871.22
2018-06-04T07:04:45.148Z,100866.89
2018-06-04T07:07:13.486Z,100872.44
2018-06-04T07:09:41.831Z,100871.53
2018-06-04T07:12:10.161Z,100861.94
2018-06-04T07:14:38.742Z,100881.23
2018-06-04T07:17:06.855Z,100865.10
2018-06-04T07:19:36.214Z,100857.08
2018-06-04T07:22:04.571Z,100857.40
2018-06-04T07:24:32.903Z,100856.34
2018-06-04T07:27:00.656Z,100856.48
2018-06-04T07:29:29.014Z,100856.92
2018-06-04T07:31:57.350Z,100848.34
2018-06-04T07:34:26.267Z,100846.67
2018-06-04T07:36:54.604Z,100852.95
2018-06-04T07:39:22.928Z,100849.42
2018-06-04T07:41:56.153Z,100840.86
2018-06-04T07:44:25.139Z,100849.89
2018-06-04T07:46:53.430Z,100852.09
2018-06-04T07:49:21.786Z,100868.91
2018-06-04T07:51:49.566Z,100842.11
2018-06-04T07:54:18.486Z,100848.12
2018-06-04T07:56:46.235Z,100848.72
2018-06-04T07:59:14.561Z,100851.01
2018-06-04T08:01:47.543Z,100844.74
2018-06-04T08:04:15.113Z,100856.38
2018-06-04T08:06:42.870Z,100854.63
2018-06-04T08:09:11.784Z,100854.55
2018-06-04T08:11:40.127Z,100845.47
2018-06-04T08:14:09.094Z,100848.81
2018-06-04T08:16:37.659Z,100840.19
2018-06-04T08:19:06.002Z,100857.20
2018-06-04T08:21:34.333Z,100851.73
2018-06-04T08:24:02.710Z,100847.59
2018-06-04T08:26:30.630Z,100850.55
2018-06-04T08:28:59.337Z,100847.28
2018-06-04T08:31:27.800Z,100843.95
2018-06-04T08:33:56.110Z,100842.88
2018-06-04T08:36:23.850Z,100841.89
2018-06-04T08:38:52.760Z,100841.16
2018-06-04T08:41:20.502Z,100836.23
2018-06-04T08:43:49.424Z,100833.69
2018-06-04T08:46:17.164Z,100841.20
2018-06-04T08:48:45.490Z,100831.87
2018-06-04T08:51:14.416Z,100831.39
2018-06-04T08:53:42.414Z,100832.18
2018-06-04T08:56:10.954Z,100831.11
2018-06-04T08:58:39.432Z,100817.80
2018-06-04T09:01:07.772Z,100837.41
2018-06-04T09:03:36.127Z,100825.30
2018-06-04T09:06:04.465Z,100831.36
2018-06-04T09:08:32.820Z,100831.31
2018-06-04T09:11:01.157Z,100829.34
2018-06-04T09:13:29.513Z,100823.66
2018-06-04T09:15:57.844Z,100829.83
2018-06-04T09:18:25.601Z,100826.64
2018-06-04T09:20:53.938Z,100826.66
2018-06-04T09:23:22.292Z,100825.75
2018-06-04T09:25:50.619Z,100821.77
2018-06-04T09:28:19.032Z,100826.33
2018-06-04T09:30:47.890Z,100822.17
2018-06-04T09:33:16.216Z,100822.92
2018-06-04T09:35:44.561Z,100830.48
2018-06-04T09:38:12.310Z,100822.50
2018-06-04T09:40:41.251Z,100820.64
2018-06-04T09:43:08.997Z,100819.60
2018-06-04T09:45:37.335Z,100826.82
2018-06-04T09:48:05.745Z,100837.70
2018-06-04T09:50:34.723Z,100814.52
2018-06-04T09:53:03.104Z,100809.42
2018-06-04T09:55:30.855Z,100811.04
2018-06-04T09:57:59.182Z,100813.91
2018-06-04T10:00:28.104Z,100811.06
2018-06-04T10:02:55.853Z,100813.36
2018-06-04T10:05:24.188Z,100815.80
2018-06-04T10:07:53.172Z,100812.80
2018-06-04T10:10:20.914Z,100809.30
2018-06-04T10:12:49.804Z,100806.56
2018-06-04T10:15:18.236Z,100804.78
2018-06-04T10:17:46.007Z,100808.59
2018-06-04T10:20:14.740Z,100806.95
2018-06-04T10:22:43.270Z,100810.47
2018-06-04T10:25:11.620Z,100798.17
2018-06-04T10:27:39.358Z,100811.48
2018-06-04T10:30:08.325Z,100802.87
2018-06-04T10:32:36.680Z,100801.34
2018-06-04T10:35:05.011Z,100795.47
2018-06-04T10:37:33.353Z,100785.47
2018-06-04T10:40:01.763Z,100796.45
2018-06-04T10:42:29.580Z,100783.84
2018-06-04T10:44:58.479Z,100779.73
2018-06-04T10:47:26.801Z,100783.22
2018-06-04T10:49:55.224Z,100762.74
2018-06-04T10:52:23.642Z,100778.36
2018-06-04T10:54:51.972Z,100790.29
2018-06-04T10:57:20.314Z,100777.39
2018-06-04T10:59:48.659Z,100781.94
2018-06-04T11:02:16.985Z,100771.75
2018-06-04T11:04:45.304Z,100769.73
2018-06-04T11:07:13.059Z,100793.78
2018-06-04T11:09:41.964Z,100785.08
2018-06-04T11:12:10.293Z,100770.05
2018-06-04T11:14:38.639Z,100779.24
2018-06-04T11:17:06.993Z,100787.69
2018-06-04T11:19:35.357Z,100772.34
2018-06-04T11:22:03.644Z,100790.41
2018-06-04T11:24:31.423Z,100757.60
2018-06-04T11:27:00.286Z,100777.64
2018-06-04T11:29:28.603Z,100761.29
2018-06-04T11:31:56.352Z,100771.00
2018-06-04T11:34:24.691Z,100764.48
2018-06-04T11:36:53.591Z,100766.25
2018-06-04T11:39:21.897Z,100762.48
2018-06-04T11:41:50.293Z,100763.33
2018-06-04T11:44:18.651Z,100756.66
2018-06-04T11:46:46.985Z,100756.63
2018-06-04T11:49:15.376Z,100747.71
2018-06-04T11:51:43.115Z,100755.55
2018-06-04T11:54:12.034Z,100763.43
2018-06-04T11:56:39.904Z,100758.69
2018-06-04T11:59:08.808Z,100752.73
2018-06-04T12:01:37.127Z,100748.45
2018-06-04T12:04:05.458Z,100754.33
2018-06-04T12:06:33.777Z,100760.30
2018-06-04T12:09:01.527Z,100759.16
2018-06-04T12:11:30.465Z,100767.39
2018-06-04T12:13:58.778Z,100763.00
2018-06-04T12:16:27.103Z,100751.59
2018-06-04T12:18:55.429Z,100753.11
2018-06-04T12:21:23.764Z,100743.11
2018-06-04T12:23:52.082Z,100741.08
2018-06-04T12:26:20.774Z,100736.66
2018-06-04T12:28:48.517Z,100737.00
2018-06-04T12:31:17.416Z,100731.61
2018-06-04T12:33:45.766Z,100756.20
2018-06-04T12:36:14.100Z,100742.38
2018-06-04T12:38:41.859Z,100731.61
2018-06-04T12:41:10.772Z,100727.75
2018-06-04T12:43:39.088Z,100731.58
2018-06-04T12:46:07.425Z,100734.46
2018-06-04T12:48:35.777Z,100732.47
2018-06-04T12:51:03.526Z,100722.52
2018-06-04T12:53:32.433Z,100730.70
2018-06-04T12:56:01.378Z,100721.83
2018-06-04T12:58:28.537Z,100735.35
2018-06-04T13:00:57.447Z,100722.58
2018-06-04T13:03:25.231Z,100714.80
2018-06-04T13:05:54.167Z,100722.48
2018-06-04T13:08:21.913Z,100738.38
2018-06-04T13:10:50.820Z,100723.33
2018-06-04T13:13:18.565Z,100718.41
2018-06-04T13:15:47.779Z,100713.34
2018-06-04T13:18:15.526Z,100699.05
2018-06-04T13:20:44.444Z,100709.34
2018-06-04T13:23:12.776Z,100701.08
2018-06-04T13:25:41.108Z,100703.73
2018-06-04T13:28:09.460Z,100703.24
2018-06-04T13:30:37.202Z,100695.77
2018-06-04T13:33:05.571Z,100696.39
2018-06-04T13:35:34.474Z,100696.69
2018-06-04T13:38:02.851Z,100697.00
2018-06-04T13:40:30.614Z,100690.50
2018-06-04T13:42:59.546Z,100695.50
2018-06-04T13:45:27.894Z,100681.84
2018-06-04T13:47:55.647Z,100681.75
2018-06-04T13:50:24.594Z,100687.08
2018-06-04T13:52:52.884Z,100676.70
2018-06-04T13:55:20.632Z,100666.52
2018-06-04T13:57:49.563Z,100682.88
2018-06-04T14:00:17.888Z,100671.44
2018-06-04T14:02:46.489Z,100692.08
2018-06-04T14:05:14.980Z,100673.95
2018-06-04T14:07:43.306Z,100669.40
2018-06-04T14:10:11.776Z,100671.67
2018-06-04T14:12:40.388Z,100664.16
2018-06-04T14:15:08.748Z,100656.13
2018-06-04T14:17:37.082Z,100663.42
2018-06-04T14:20:05.404Z,100667.98
2018-06-04T14:22:33.158Z,100654.27
2018-06-04T14:25:02.074Z,100646.61
2018-06-04T14:27:29.843Z,100646.72
2018-06-04T14:29:58.727Z,100646.19
2018-06-04T14:32:27.042Z,100637.99
2018-06-04T14:34:55.374Z,100646.30
2018-06-04T14:37:23.740Z,100651.17
2018-06-04T14:39:51.446Z,100656.94
2018-06-04T14:42:20.580Z,100650.20
2018-06-04T14:44:48.104Z,100647.92
2018-06-04T14:47:17.006Z,100646.61
2018-06-04T14:49:46.454Z,100644.97
2018-06-04T14:52:14.781Z,100645.62
2018-06-04T14:54:42.535Z,100652.97
2018-06-04T14:57:11.521Z,100660.19
2018-06-04T14:59:39.971Z,100647.86
2018-06-04T15:02:09.995Z,100654.14
2018-06-04T15:04:36.092Z,100644.80
2018-06-04T15:07:04.987Z,100636.32
2018-06-04T15:09:33.342Z,100635.09
2018-06-04T15:12:01.631Z,100638.31
2018-06-04T15:14:29.956Z,100636.43
2018-06-04T15:16:58.280Z,100634.97
2018-06-04T15:19:26.592Z,100630.22
2018-06-04T15:21:54.930Z,100620.03
2018-06-04T15:24:23.295Z,100633.41
2018-06-04T15:26:51.666Z,100618.20
2018-06-04T15:29:19.987Z,100646.28
2018-06-04T15:31:48.624Z,100635.75
2018-06-04T15:34:17.862Z,100630.43
2018-06-04T15:36:47.104Z,100633.39
2018-06-04T15:39:15.527Z,100632.75
2018-06-04T15:41:43.891Z,100643.22
2018-06-04T15:44:12.250Z,100636.77
2018-06-04T15:46:40.634Z,100638.88
2018-06-04T15:49:09.022Z,100636.20
2018-06-04T15:51:37.415Z,100641.94
2018-06-04T15:54:06.107Z,100639.84
2018-06-04T15:56:34.479Z,100691.48
2018-06-04T15:59:02.852Z,100639.95
2018-06-04T16:01:31.223Z,100634.11
2018-06-04T16:03:59.590Z,100634.31
2018-06-04T16:06:28.000Z,100667.79
2018-06-04T16:08:56.392Z,100640.17
2018-06-04T16:11:24.772Z,100639.22
2018-06-04T16:13:53.142Z,100645.56
2018-06-04T16:16:21.537Z,100631.92
2018-06-04T16:18:49.998Z,100627.27
2018-06-04T16:21:18.381Z,100628.44
2018-06-04T16:23:47.045Z,100637.47
2018-06-04T16:26:15.417Z,100624.26
2018-06-04T16:28:44.464Z,100622.92
2018-06-04T16:31:12.828Z,100618.95
2018-06-04T16:33:41.188Z,100618.20
2018-06-04T16:36:09.822Z,100619.31
2018-06-04T16:38:38.187Z,100626.24
2018-06-04T16:41:06.922Z,100625.88
2018-06-04T16:43:35.275Z,100629.31
2018-06-04T16:46:03.637Z,100606.94
2018-06-04T16:48:32.001Z,100625.98
2018-06-04T16:51:00.376Z,100613.61
2018-06-04T16:53:28.722Z,100611.69
2018-06-04T16:55:57.097Z,100611.16
2018-06-04T16:58:25.539Z,100616.16
2018-06-04T17:00:53.918Z,100617.30
2018-06-04T17:03:22.291Z,100605.36
2018-06-04T17:05:50.664Z,100613.69
2018-06-04T17:08:19.180Z,100605.80
2018-06-04T17:10:47.729Z,100605.02
2018-06-04T17:13:15.863Z,100603.14
2018-06-04T17:15:44.232Z,100605.16
2018-06-04T17:18:12.604Z,100602.33
2018-06-04T17:20:40.972Z,100605.12
2018-06-04T17:23:09.364Z,100606.18
2018-06-04T17:25:37.707Z,100604.88
2018-06-04T17:28:06.066Z,100611.19
2018-06-04T17:30:34.434Z,100617.06
2018-06-04T17:33:03.808Z,100618.58
2018-06-04T17:35:31.499Z,100618.86
2018-06-04T17:38:00.145Z,100610.89
2018-06-04T17:40:28.515Z,100610.41
2018-06-04T17:42:56.880Z,100601.69
2018-06-04T17:45:25.259Z,100606.97
2018-06-04T17:47:53.631Z,100607.41
2018-06-04T17:50:22.009Z,100611.06
2018-06-04T17:52:50.379Z,100614.72
2018-06-04T17:55:18.729Z,100615.93
2018-06-04T17:57:47.099Z,100616.42
2018-06-04T18:00:15.503Z,100607.66
2018-06-04T18:02:43.898Z,100609.55
2018-06-04T18:05:12.284Z,100624.38
2018-06-04T18:07:40.768Z,100613.06
2018-06-04T18:10:09.267Z,100611.42
2018-06-04T18:12:37.671Z,100610.92
2018-06-04T18:15:06.107Z,100607.67
2018-06-04T18:17:34.449Z,100613.64
2018-06-04T18:20:02.872Z,100614.72
2018-06-04T18:22:31.329Z,100621.16
2018-06-04T18:24:59.707Z,100618.88
2018-06-04T18:27:28.069Z,100630.89
2018-06-04T18:29:56.468Z,100605.14
2018-06-04T18:32:24.900Z,100599.85
2018-06-04T18:34:53.273Z,100609.69
2018-06-04T18:37:21.668Z,100607.20
2018-06-04T18:39:50.040Z,100620.44
2018-06-04T18:42:18.418Z,100601.62
2018-06-04T18:44:46.826Z,100608.73
2018-06-04T18:47:15.188Z,100617.33
2018-06-04T18:49:43.603Z,100615.95
2018-06-04T18:52:11.971Z,100611.70
2018-06-04T18:54:40.330Z,100620.53
2018-06-04T18:57:08.706Z,100613.78
2018-06-04T18:59:37.352Z,100607.30
2018-06-04T19:02:05.706Z,100604.48
2018-06-04T19:04:34.070Z,100615.05
2018-06-04T19:07:02.473Z,100613.05
2018-06-04T19:09:30.935Z,100611.67
2018-06-04T19:11:59.359Z,100606.98
2018-06-04T19:14:27.722Z,100611.84
2018-06-04T19:16:56.076Z,100614.66
2018-06-04T19:19:24.442Z,100610.37
2018-06-04T19:21:53.369Z,100620.16
2018-06-04T19:24:21.740Z,100622.61
2018-06-04T19:26:50.115Z,100619.53
2018-06-04T19:29:18.481Z,100622.99
2018-06-04T19:31:46.897Z,100628.52
2018-06-04T19:34:15.258Z,100623.55
2018-06-04T19:36:43.642Z,100634.08
2018-06-04T19:39:12.109Z,100631.02
2018-06-04T19:41:40.457Z,100641.45
2018-06-04T19:44:08.826Z,100640.91
2018-06-04T19:46:37.197Z,100637.84
2018-06-04T19:49:05.588Z,100635.12
2018-06-04T19:51:33.992Z,100640.02
2018-06-04T19:54:02.333Z,100634.87
2018-06-04T19:56:30.716Z,100645.73
2018-06-04T19:58:59.274Z,100640.80
2018-06-04T20:01:27.678Z,100640.85
2018-06-04T20:03:56.073Z,100645.94
2018-06-04T20:06:24.453Z,100647.42
2018-06-04T20:08:52.819Z,100649.12
2018-06-04T20:11:21.214Z,100646.66
2018-06-04T20:13:49.746Z,100641.50
2018-06-04T20:16:18.133Z,100651.20
2018-06-04T20:18:46.512Z,100639.68
2018-06-04T20:21:14.924Z,100643.34
2018-06-04T20:23:43.297Z,100645.02
2018-06-04T20:26:11.831Z,100649.67
2018-06-04T20:28:40.203Z,100654.70
2018-06-04T20:31:08.610Z,100648.83
2018-06-04T20:33:36.980Z,100638.69
2018-06-04T20:36:05.357Z,100635.02
2018-06-04T20:38:34.029Z,100642.56
2018-06-04T20:41:02.459Z,100634.84
2018-06-04T20:43:30.837Z,100622.02
2018-06-04T20:45:59.248Z,100640.37
2018-06-04T20:48:27.703Z,100630.23
2018-06-04T20:50:56.159Z,100635.19
2018-06-04T20:53:24.536Z,100625.91
2018-06-04T20:55:53.254Z,100622.99
2018-06-04T20:58:21.633Z,100628.33
2018-06-04T21:00:50.091Z,100611.08
2018-06-04T21:03:19.006Z,100621.58
2018-06-04T21:05:47.442Z,100622.28
2018-06-04T21:08:15.835Z,100610.81
2018-06-04T21:10:44.208Z,100609.76
2018-06-04T21:13:12.591Z,100604.20
2018-06-04T21:15:40.995Z,100598.77
2018-06-04T21:18:09.496Z,100597.30
2018-06-04T21:20:37.877Z,100601.25
2018-06-04T21:23:06.260Z,100603.18
2018-06-04T21:25:34.871Z,100607.13
2018-06-04T21:28:03.023Z,100609.39
2018-06-04T21:30:31.400Z,100597.48
2018-06-04T21:32:59.776Z,100601.91
2018-06-04T21:35:28.177Z,100605.07
2018-06-04T21:37:56.572Z,100600.90
2018-06-04T21:40:24.957Z,100601.48
2018-06-04T21:42:53.335Z,100603.16
2018-06-04T21:45:21.713Z,100608.27
2018-06-04T21:47:50.092Z,100603.56
2018-06-04T21:50:18.494Z,100614.91
2018-06-04T21:52:46.870Z,100614.44
2018-06-04T21:55:15.261Z,100619.14
2018-06-04T21:57:43.643Z,100624.23
2018-06-04T22:00:12.252Z,100627.08
2018-06-04T22:02:40.407Z,100621.50
2018-06-04T22:05:08.789Z,100629.07
2018-06-04T22:07:37.183Z,100633.13
2018-06-04T22:10:05.561Z,100628.67
2018-06-04T22:12:33.941Z,100631.62
2018-06-04T22:15:02.315Z,100631.48
2018-06-04T22:17:30.741Z,100629.52
2018-06-04T22:19:59.124Z,100637.91
2018-06-04T22:22:27.514Z,100640.17
2018-06-04T22:24:55.896Z,100641.39
2018-06-04T22:27:24.294Z,100638.02
2018-06-04T22:29:52.668Z,100639.23
2018-06-04T22:32:21.047Z,100637.64
2018-06-04T22:34:49.431Z,100638.73
2018-06-04T22:37:17.859Z,100642.92
2018-06-04T22:39:46.289Z,100641.25
2018-06-04T22:42:14.678Z,100646.02
2018-06-04T22:44:43.055Z,100648.80
2018-06-04T22:47:11.431Z,100653.91
2018-06-04T22:49:40.101Z,100655.20
2018-06-04T22:52:08.521Z,100656.95
2018-06-04T22:54:36.904Z,100659.86
2018-06-04T22:57:05.287Z,100664.86
2018-06-04T22:59:33.664Z,100662.62
2018-06-04T23:02:02.041Z,100660.94
2018-06-04T23:04:30.653Z,100658.31
2018-06-04T23:06:58.793Z,100658.81
2018-06-04T23:09:27.169Z,100665.64
2018-06-04T23:11:55.540Z,100669.09
2018-06-04T23:14:23.906Z,100668.52
2018-06-04T23:16:52.298Z,100665.16
2018-06-04T23:19:20.736Z,100663.84
2018-06-04T23:21:49.110Z,100662.69
2018-06-04T23:24:17.499Z,100667.50
2018-06-04T23:26:45.875Z,100662.40
2018-06-04T23:29:14.251Z,100662.41
2018-06-04T23:31:42.624Z,100666.19
2018-06-04T23:34:10.990Z,100670.63
2018-06-04T23:36:39.371Z,100673.09
2018-06-04T23:39:07.745Z,100674.64
2018-06-04T23:41:36.119Z,100677.33
2018-06-04T23:44:04.874Z,100674.47
2018-06-04T23:46:33.244Z,100675.62
2018-06-04T23:49:02.242Z,100682.84
2018-06-04T23:51:30.619Z,100683.70
2018-06-04T23:53:58.994Z,100682.97
2018-06-04T23:56:27.367Z,100679.65
2018-06-04T23:58:55.743Z,100676.40
